Time;durP1;ratioP1;P1;durP2;ratioP2;P2;SDS_P1;SDS_P2;PMS_P1;PMS_P2;Temp;Humidity;BMP_temperature;BMP_pressure;BME280_temperature;BME280_humidity;BME280_pressure;Samples;Min_cycle;Max_cycle;Signal;HPM_P1;HPM_P2
2022/04/10 00:01:31;;;;;;;12.02;5.70;;;2.10;99.90;;;;;;5039296;28;20028;-81
2022/04/10 00:03:59;;;;;;;10.35;6.10;;;2.00;99.90;;;;;;5038973;28;20056;-80
2022/04/10 00:06:25;;;;;;;12.63;5.20;;;2.00;99.90;;;;;;5057595;28;20059;-81
2022/04/10 00:08:51;;;;;;;13.27;5.80;;;2.00;99.90;;;;;;5040990;28;20469;-82
2022/04/10 00:11:17;;;;;;;11.70;5.30;;;2.00;99.90;;;;;;5058360;28;20108;-85
2022/04/10 00:13:43;;;;;;;11.15;6.03;;;2.00;99.90;;;;;;5058440;28;20055;-82
2022/04/10 00:16:09;;;;;;;14.73;5.53;;;2.00;99.90;;;;;;5058698;28;20048;-82
2022/04/10 00:18:37;;;;;;;11.27;5.93;;;2.00;99.90;;;;;;5051103;28;20033;-80
2022/04/10 00:21:04;;;;;;;13.60;5.63;;;2.00;99.90;;;;;;5072160;28;20116;-82
2022/04/10 00:23:31;;;;;;;12.60;5.18;;;2.00;99.90;;;;;;5068284;28;20029;-82
2022/04/10 00:25:56;;;;;;;17.77;6.22;;;2.00;99.90;;;;;;5059310;28;20048;-82
2022/04/10 00:28:22;;;;;;;13.68;5.53;;;2.00;99.90;;;;;;5057303;28;20428;-80
2022/04/10 00:30:48;;;;;;;20.73;5.72;;;2.00;99.90;;;;;;5040067;28;20029;-81
2022/04/10 00:33:13;;;;;;;15.55;5.80;;;2.00;99.90;;;;;;5040211;28;20033;-82
2022/04/10 00:35:39;;;;;;;16.83;5.82;;;1.90;99.90;;;;;;5039886;28;20071;-82
2022/04/10 00:38:06;;;;;;;12.00;4.55;;;2.00;99.90;;;;;;5039561;28;20035;-82
2022/04/10 00:40:32;;;;;;;11.38;5.10;;;2.00;99.90;;;;;;5057905;28;20039;-82
2022/04/10 00:42:57;;;;;;;10.45;5.15;;;2.00;99.90;;;;;;5058083;28;20021;-82
2022/04/10 00:45:23;;;;;;;16.08;5.97;;;2.00;99.90;;;;;;5038997;28;20059;-85
2022/04/10 00:47:49;;;;;;;15.48;5.32;;;2.00;99.90;;;;;;5058039;28;20048;-83
2022/04/10 00:50:16;;;;;;;14.85;4.97;;;2.00;99.90;;;;;;5043779;28;20445;-84
2022/04/10 00:52:43;;;;;;;8.75;4.95;;;2.00;99.90;;;;;;5048362;28;20029;-83
2022/04/10 00:55:10;;;;;;;12.00;4.78;;;2.10;99.90;;;;;;5064667;28;20040;-83
2022/04/10 00:57:36;;;;;;;14.38;5.53;;;2.10;99.90;;;;;;5048477;28;20021;-83
2022/04/10 01:00:06;;;;;;;10.95;5.00;;;2.10;99.90;;;;;;5059489;28;20345;-80
2022/04/10 01:02:32;;;;;;;10.43;5.25;;;2.10;99.90;;;;;;5056464;28;20053;-80
2022/04/10 01:04:58;;;;;;;10.02;4.65;;;2.10;99.90;;;;;;5037906;28;20365;-82
2022/04/10 01:07:25;;;;;;;8.90;4.93;;;2.10;99.90;;;;;;5037753;28;20373;-80
2022/04/10 01:09:50;;;;;;;13.70;5.25;;;2.10;99.90;;;;;;5055188;28;20465;-80
2022/04/10 01:12:16;;;;;;;16.27;4.90;;;2.00;99.90;;;;;;5054877;28;20035;-83
2022/04/10 01:14:42;;;;;;;10.18;5.72;;;2.00;99.90;;;;;;5055084;28;20028;-81
2022/04/10 01:17:09;;;;;;;14.25;5.45;;;2.00;99.90;;;;;;5037321;28;20115;-81
2022/04/10 01:19:39;;;;;;;11.32;5.63;;;1.90;99.90;;;;;;5055590;28;20489;-81
2022/04/10 01:22:06;;;;;;;17.02;5.63;;;1.90;99.90;;;;;;5054352;28;20096;-80
2022/04/10 01:24:40;;;;;;;15.77;5.68;;;1.90;99.90;;;;;;5036449;28;20111;-80
2022/04/10 01:27:06;;;;;;;16.27;5.40;;;1.80;99.90;;;;;;5055081;28;20028;-82
2022/04/10 01:29:32;;;;;;;13.75;5.55;;;1.80;99.90;;;;;;5036647;28;20029;-82
2022/04/10 01:31:57;;;;;;;11.75;5.32;;;1.80;99.90;;;;;;5037083;28;20075;-81
2022/04/10 01:34:23;;;;;;;15.88;5.50;;;1.70;99.90;;;;;;5036410;28;20033;-81
2022/04/10 01:36:49;;;;;;;12.27;5.45;;;1.70;99.90;;;;;;5036647;28;20035;-80
2022/04/10 01:39:16;;;;;;;11.75;5.38;;;1.80;99.90;;;;;;5036166;28;20047;-81
2022/04/10 01:41:42;;;;;;;12.57;5.32;;;1.80;99.90;;;;;;5054374;28;20024;-80
2022/04/10 01:44:09;;;;;;;15.43;5.45;;;1.80;99.90;;;;;;5054388;28;20180;-80
2022/04/10 01:46:36;;;;;;;11.60;4.88;;;1.80;99.90;;;;;;5036193;28;20042;-80
2022/04/10 01:49:03;;;;;;;16.92;5.95;;;1.70;99.90;;;;;;5036326;28;20127;-82
2022/04/10 01:51:30;;;;;;;13.75;5.85;;;1.70;99.90;;;;;;5054899;28;20029;-81
2022/04/10 01:53:56;;;;;;;11.43;5.35;;;1.80;99.90;;;;;;5036706;28;20511;-82
2022/04/10 01:56:22;;;;;;;11.15;5.68;;;1.80;99.90;;;;;;5054981;28;20373;-81
2022/04/10 01:58:48;;;;;;;9.95;5.07;;;1.80;99.90;;;;;;5054614;28;20091;-81
2022/04/10 02:01:16;;;;;;;13.13;5.72;;;1.80;99.90;;;;;;5036480;28;20064;-81
2022/04/10 02:03:43;;;;;;;14.93;5.97;;;1.80;99.90;;;;;;5055222;28;20028;-82
2022/04/10 02:06:11;;;;;;;20.60;6.68;;;1.80;99.90;;;;;;5036307;28;20027;-82
2022/04/10 02:08:38;;;;;;;14.52;6.28;;;1.80;99.90;;;;;;5056718;28;20052;-81
2022/04/10 02:11:18;;;;;;;11.95;6.28;;;1.80;99.90;;;;;;5055476;28;20025;-81
2022/04/10 02:13:46;;;;;;;13.63;5.80;;;1.80;99.90;;;;;;5045434;28;20036;-82
2022/04/10 02:16:14;;;;;;;15.23;5.70;;;1.70;99.90;;;;;;5044009;28;20025;-82
2022/04/10 02:18:40;;;;;;;17.98;6.50;;;1.80;99.90;;;;;;5043790;28;20025;-82
2022/04/10 02:21:06;;;;;;;14.30;6.25;;;1.70;99.90;;;;;;5051274;28;20047;-81
2022/04/10 02:23:35;;;;;;;15.32;6.10;;;1.70;99.90;;;;;;5030633;28;20473;-82
2022/04/10 02:26:01;;;;;;;12.50;6.45;;;1.70;99.90;;;;;;5074254;22;20128;-77
2022/04/10 02:28:27;;;;;;;15.50;6.15;;;1.60;99.90;;;;;;5041523;28;20014;-77
2022/04/10 02:30:52;;;;;;;16.23;6.28;;;1.60;99.90;;;;;;5041594;28;20053;-76
2022/04/10 02:33:18;;;;;;;12.85;6.05;;;1.60;99.90;;;;;;5024045;28;20025;-79
2022/04/10 02:35:45;;;;;;;16.42;5.47;;;1.60;99.90;;;;;;5027195;28;20073;-79
2022/04/10 02:38:11;;;;;;;10.65;5.63;;;1.50;99.90;;;;;;5027866;28;20022;-75
2022/04/10 02:40:37;;;;;;;15.75;5.75;;;1.50;99.90;;;;;;5045270;22;20042;-84
2022/04/10 02:43:03;;;;;;;17.10;6.55;;;1.50;99.90;;;;;;5020155;28;20091;-81
2022/04/10 02:45:28;;;;;;;10.75;6.15;;;1.50;99.90;;;;;;5020883;28;20112;-83
2022/04/10 02:47:54;;;;;;;14.88;6.55;;;1.60;99.90;;;;;;5021916;28;20026;-81
2022/04/10 02:50:20;;;;;;;12.77;6.32;;;1.50;99.90;;;;;;5019897;28;20043;-84
2022/04/10 02:52:45;;;;;;;14.85;5.53;;;1.50;99.90;;;;;;5020106;28;20026;-82
2022/04/10 02:55:11;;;;;;;12.25;5.93;;;1.50;99.90;;;;;;5020876;28;20042;-85
2022/04/10 02:57:38;;;;;;;15.55;5.65;;;1.50;99.90;;;;;;5021404;28;20036;-84
2022/04/10 03:00:04;;;;;;;15.10;6.43;;;1.50;99.90;;;;;;5020056;28;20377;-82
2022/04/10 03:02:30;;;;;;;15.90;5.80;;;1.50;99.90;;;;;;5019876;28;20482;-83
2022/04/10 03:04:56;;;;;;;18.83;5.75;;;1.60;99.90;;;;;;5019384;28;20040;-82
2022/04/10 03:07:21;;;;;;;11.45;5.90;;;1.60;99.90;;;;;;5018463;28;20033;-82
2022/04/10 03:09:47;;;;;;;19.70;6.35;;;1.60;99.90;;;;;;5018214;28;20111;-83
2022/04/10 03:12:13;;;;;;;14.02;6.35;;;1.60;99.90;;;;;;5021441;28;20034;-82
2022/04/10 03:14:38;;;;;;;13.80;6.55;;;1.60;99.90;;;;;;5017949;28;20080;-83
2022/04/10 03:17:04;;;;;;;14.20;5.90;;;1.60;99.90;;;;;;5017426;28;20030;-82
2022/04/10 03:19:30;;;;;;;17.80;6.55;;;1.60;99.90;;;;;;5018837;28;20048;-82
2022/04/10 03:21:56;;;;;;;12.70;5.68;;;1.60;99.90;;;;;;5018788;28;20236;-83
2022/04/10 03:24:22;;;;;;;17.70;5.93;;;1.60;99.90;;;;;;5017753;28;20030;-84
2022/04/10 03:26:48;;;;;;;10.45;5.38;;;1.60;99.90;;;;;;5022436;28;20030;-80
2022/04/10 03:29:13;;;;;;;13.43;6.25;;;1.50;99.90;;;;;;5033470;28;20021;-81
2022/04/10 03:31:39;;;;;;;11.63;5.63;;;1.50;99.90;;;;;;5016857;28;20033;-81
2022/04/10 03:34:05;;;;;;;11.68;5.47;;;1.40;99.90;;;;;;5018301;28;20412;-84
2022/04/10 03:36:31;;;;;;;15.68;6.78;;;1.30;99.90;;;;;;5017216;28;20117;-83
2022/04/10 03:38:56;;;;;;;20.27;6.80;;;1.30;99.90;;;;;;5016770;28;20461;-84
2022/04/10 03:41:22;;;;;;;16.50;6.85;;;1.30;99.90;;;;;;5017286;28;20032;-84
2022/04/10 03:43:47;;;;;;;15.95;6.88;;;1.30;99.90;;;;;;5019241;28;20026;-81
2022/04/10 03:46:13;;;;;;;18.10;6.05;;;1.30;99.90;;;;;;5016753;28;20482;-84
2022/04/10 03:48:39;;;;;;;16.00;6.65;;;1.20;99.90;;;;;;5016484;28;20061;-83
2022/04/10 03:51:04;;;;;;;14.00;6.75;;;1.20;99.90;;;;;;5016087;28;20022;-83
2022/04/10 03:53:30;;;;;;;10.60;5.75;;;1.20;99.90;;;;;;5015242;28;20021;-83
2022/04/10 03:55:56;;;;;;;16.83;6.60;;;1.10;99.90;;;;;;5033900;28;20037;-81
2022/04/10 03:58:21;;;;;;;13.18;6.72;;;1.10;99.90;;;;;;5032013;28;20413;-82
2022/04/10 04:00:47;;;;;;;12.55;6.95;;;1.00;99.90;;;;;;5016742;28;20033;-81
2022/04/10 04:03:13;;;;;;;16.15;6.53;;;1.00;99.90;;;;;;5017197;28;20065;-83
2022/04/10 04:05:39;;;;;;;15.52;7.05;;;1.00;99.90;;;;;;5015591;28;20145;-82
2022/04/10 04:08:04;;;;;;;16.10;6.90;;;1.00;99.90;;;;;;5016747;28;20034;-80
2022/04/10 04:10:30;;;;;;;18.67;7.32;;;1.00;99.90;;;;;;5016777;28;20034;-83
2022/04/10 04:12:56;;;;;;;14.02;6.70;;;1.00;99.90;;;;;;5016395;28;20041;-84
2022/04/10 04:15:21;;;;;;;12.73;6.45;;;1.00;99.90;;;;;;5015901;28;20076;-82
2022/04/10 04:17:47;;;;;;;12.93;7.15;;;1.00;99.90;;;;;;5014745;28;20026;-83
2022/04/10 04:20:13;;;;;;;17.50;7.15;;;1.00;99.90;;;;;;5015264;28;20477;-84
2022/04/10 04:22:39;;;;;;;18.08;7.13;;;1.00;99.90;;;;;;5015242;28;20041;-82
2022/04/10 04:25:06;;;;;;;20.60;6.90;;;1.10;99.90;;;;;;5016569;28;20026;-81
2022/04/10 04:27:32;;;;;;;16.58;6.90;;;1.10;99.90;;;;;;5014693;28;20022;-82
2022/04/10 04:29:57;;;;;;;13.88;6.38;;;1.10;99.90;;;;;;5014969;28;20026;-82
2022/04/10 04:32:23;;;;;;;15.50;7.00;;;1.10;99.90;;;;;;5017179;28;20113;-81
2022/04/10 04:34:49;;;;;;;16.00;6.38;;;1.10;99.90;;;;;;5017207;28;20037;-84
2022/04/10 04:37:15;;;;;;;13.82;7.00;;;1.10;99.90;;;;;;5016052;28;20026;-80
2022/04/10 04:39:40;;;;;;;16.25;6.68;;;1.10;99.90;;;;;;5017309;28;20030;-82
2022/04/10 04:42:06;;;;;;;18.73;6.82;;;1.10;99.90;;;;;;5014938;28;20026;-83
2022/04/10 04:44:32;;;;;;;17.50;6.57;;;1.10;99.90;;;;;;5010744;28;20034;-86
2022/04/10 04:46:58;;;;;;;16.70;7.03;;;1.10;99.90;;;;;;4997325;28;20077;-81
2022/04/10 04:49:25;;;;;;;19.90;7.20;;;1.10;99.90;;;;;;4994771;28;20030;-81
2022/04/10 04:51:50;;;;;;;16.20;7.55;;;1.10;99.90;;;;;;4995957;28;20033;-83
2022/04/10 04:54:16;;;;;;;19.20;7.28;;;1.10;99.90;;;;;;4996663;28;20132;-80
2022/04/10 04:56:41;;;;;;;15.65;6.13;;;1.10;99.90;;;;;;4996657;28;20181;-84
2022/04/10 04:59:07;;;;;;;14.10;7.13;;;1.10;99.90;;;;;;4997764;28;20026;-87
2022/04/10 05:01:32;;;;;;;17.77;6.88;;;1.20;99.90;;;;;;4999925;28;20022;-86
2022/04/10 05:03:59;;;;;;;21.67;6.28;;;1.20;99.90;;;;;;4996368;28;20077;-83
2022/04/10 05:06:25;;;;;;;15.55;6.97;;;1.20;99.90;;;;;;4994413;28;20026;-82
2022/04/10 05:08:51;;;;;;;18.75;7.90;;;1.30;99.90;;;;;;4996481;28;20026;-82
2022/04/10 05:11:17;;;;;;;18.30;8.05;;;1.30;99.90;;;;;;4994930;28;20041;-82
2022/04/10 05:13:43;;;;;;;15.93;6.05;;;1.30;99.90;;;;;;4996377;28;20038;-81
2022/04/10 05:16:09;;;;;;;17.02;6.50;;;1.30;99.90;;;;;;5015726;28;20076;-83
2022/04/10 05:18:35;;;;;;;20.25;7.00;;;1.40;99.90;;;;;;5016672;28;20037;-81
2022/04/10 05:21:01;;;;;;;17.48;6.72;;;1.40;99.90;;;;;;5014774;28;20396;-80
2022/04/10 05:23:26;;;;;;;18.02;7.20;;;1.40;99.90;;;;;;5017440;28;20449;-82
2022/04/10 05:25:53;;;;;;;21.02;6.97;;;1.40;99.90;;;;;;5017091;28;20030;-84
2022/04/10 05:28:18;;;;;;;19.80;8.18;;;1.50;99.90;;;;;;5016622;28;20476;-86
2022/04/10 05:30:44;;;;;;;13.15;6.53;;;1.70;99.90;;;;;;5014810;28;20021;-82
2022/04/10 05:33:10;;;;;;;17.75;7.20;;;1.70;99.90;;;;;;5013149;28;20434;-82
2022/04/10 05:35:36;;;;;;;19.83;7.00;;;1.90;99.90;;;;;;5013633;28;20485;-82
2022/04/10 05:38:02;;;;;;;19.98;6.90;;;1.90;99.90;;;;;;5014664;28;20052;-82
2022/04/10 05:40:28;;;;;;;14.70;6.43;;;2.00;99.90;;;;;;5013442;28;20068;-82
2022/04/10 05:42:54;;;;;;;20.05;7.47;;;2.10;99.90;;;;;;5014843;28;20028;-84
2022/04/10 05:45:19;;;;;;;13.30;7.03;;;2.20;99.90;;;;;;5001848;28;20026;-82
2022/04/10 05:47:45;;;;;;;15.07;5.93;;;2.30;99.90;;;;;;4993546;28;20105;-83
2022/04/10 05:50:12;;;;;;;15.65;6.30;;;2.50;99.90;;;;;;4993392;28;20042;-82
2022/04/10 05:52:39;;;;;;;19.08;6.07;;;2.60;99.90;;;;;;4994822;28;20034;-84
2022/04/10 05:55:06;;;;;;;16.30;6.53;;;2.70;99.90;;;;;;4992614;28;20030;-82
2022/04/10 05:57:31;;;;;;;16.90;6.05;;;2.90;99.90;;;;;;4992271;28;20041;-82
2022/04/10 05:59:57;;;;;;;13.90;5.65;;;3.00;99.90;;;;;;4992689;28;20030;-84
2022/04/10 06:02:22;;;;;;;13.35;6.43;;;3.20;99.90;;;;;;4994723;28;20450;-81
2022/04/10 06:04:48;;;;;;;15.40;6.00;;;3.40;99.90;;;;;;5016294;28;20026;-82
2022/04/10 06:07:14;;;;;;;12.02;5.63;;;3.60;99.90;;;;;;5002524;28;20058;-82
2022/04/10 06:09:39;;;;;;;15.85;5.80;;;3.80;99.90;;;;;;4990913;28;20026;-86
2022/04/10 06:12:05;;;;;;;19.63;5.45;;;4.00;99.90;;;;;;4993078;28;20113;-84
2022/04/10 06:14:31;;;;;;;13.98;5.70;;;4.20;99.90;;;;;;4993306;28;20034;-84
2022/04/10 06:16:57;;;;;;;15.73;5.18;;;4.40;99.90;;;;;;4993201;28;20052;-82
2022/04/10 06:19:23;;;;;;;12.23;5.15;;;4.60;99.90;;;;;;4990960;28;20022;-84
2022/04/10 06:21:49;;;;;;;11.52;5.47;;;4.80;99.90;;;;;;4992272;28;20100;-83
2022/04/10 06:24:14;;;;;;;17.58;5.05;;;5.10;99.90;;;;;;4991230;28;20105;-83
2022/04/10 06:26:41;;;;;;;13.15;5.43;;;5.30;99.90;;;;;;4992151;28;20077;-83
2022/04/10 06:29:07;;;;;;;11.73;5.30;;;5.50;99.90;;;;;;4991455;28;20026;-83
2022/04/10 06:31:33;;;;;;;12.20;5.18;;;5.60;99.90;;;;;;5001624;28;20061;-80
2022/04/10 06:33:58;;;;;;;12.30;5.47;;;5.60;99.90;;;;;;5008794;28;20030;-83
2022/04/10 06:36:24;;;;;;;10.93;5.30;;;5.60;99.90;;;;;;4990801;28;20033;-83
2022/04/10 06:38:50;;;;;;;10.35;4.60;;;5.80;99.90;;;;;;4990698;28;20156;-83
2022/04/10 06:41:16;;;;;;;12.18;5.28;;;5.90;99.90;;;;;;4990618;28;20030;-82
2022/04/10 06:43:42;;;;;;;12.90;5.22;;;6.20;99.90;;;;;;4990711;28;20080;-82
2022/04/10 06:46:08;;;;;;;12.10;5.18;;;6.50;99.90;;;;;;5008415;28;20081;-83
2022/04/10 06:48:35;;;;;;;16.10;5.63;;;6.80;99.90;;;;;;5011718;28;20026;-83
2022/04/10 06:51:01;;;;;;;12.70;3.92;;;6.90;99.90;;;;;;5010217;28;20468;-82
2022/04/10 06:53:27;;;;;;;14.23;4.53;;;7.10;99.90;;;;;;5010382;28;20117;-83
2022/04/10 06:55:52;;;;;;;10.65;4.47;;;7.30;99.90;;;;;;5011300;28;20022;-85
2022/04/10 06:58:22;;;;;;;12.85;5.22;;;7.40;99.90;;;;;;5009999;28;20347;-83
2022/04/10 07:00:49;;;;;;;16.63;4.70;;;7.40;99.90;;;;;;5010294;28;20034;-81
2022/04/10 07:03:15;;;;;;;12.73;4.55;;;7.30;99.90;;;;;;5010300;28;20022;-83
2022/04/10 07:05:41;;;;;;;12.00;4.28;;;7.60;99.90;;;;;;5011446;28;20476;-83
2022/04/10 07:08:07;;;;;;;18.02;5.10;;;7.80;99.90;;;;;;5011565;28;20022;-83
2022/04/10 07:10:33;;;;;;;14.25;4.68;;;8.10;99.90;;;;;;5010132;28;20405;-85
2022/04/10 07:12:59;;;;;;;8.48;4.32;;;8.20;99.90;;;;;;5009996;28;20030;-82
2022/04/10 07:15:25;;;;;;;14.38;4.85;;;8.30;99.90;;;;;;5011288;28;20110;-85
2022/04/10 07:17:51;;;;;;;15.13;4.47;;;8.40;99.90;;;;;;5009904;28;20121;-84
2022/04/10 07:20:16;;;;;;;12.20;5.30;;;8.50;99.90;;;;;;5011027;28;20430;-84
2022/04/10 07:25:26;;;;;;;12.77;4.88;;;8.70;99.90;;;;;;5015553;28;20053;-88
2022/04/10 07:27:51;;;;;;;14.32;4.63;;;8.90;99.90;;;;;;5014568;28;20502;-83
2022/04/10 07:30:17;;;;;;;12.43;4.95;;;9.20;99.90;;;;;;5013597;28;20033;-85
2022/04/10 07:32:50;;;;;;;10.80;4.72;;;9.20;99.90;;;;;;5013792;28;20034;-87
2022/04/10 07:35:16;;;;;;;11.63;3.55;;;9.40;99.90;;;;;;5015901;28;20030;-81
2022/04/10 07:37:42;;;;;;;13.23;4.18;;;9.50;99.90;;;;;;5016287;28;20033;-85
2022/04/10 07:40:08;;;;;;;9.88;4.07;;;9.70;99.90;;;;;;5015582;28;20061;-83
2022/04/10 07:42:42;;;;;;;15.38;3.67;;;9.70;99.90;;;;;;5014029;28;20022;-84
2022/04/10 07:45:09;;;;;;;10.60;3.90;;;9.70;99.90;;;;;;5015183;28;20073;-83
2022/04/10 07:47:35;;;;;;;11.65;3.67;;;9.70;99.90;;;;;;5015641;28;20029;-84
2022/04/10 07:50:01;;;;;;;14.85;3.80;;;10.20;99.90;;;;;;5014328;28;20037;-80
2022/04/10 07:52:27;;;;;;;8.05;3.58;;;10.00;99.90;;;;;;5018525;28;20022;-84
2022/04/10 07:54:52;;;;;;;10.95;3.80;;;10.00;99.90;;;;;;5022178;28;20516;-82
2022/04/10 07:57:19;;;;;;;10.77;3.20;;;10.00;99.90;;;;;;5015960;28;20029;-83
2022/04/10 07:59:45;;;;;;;9.68;3.45;;;10.60;99.90;;;;;;5013652;28;20026;-83
2022/04/10 08:02:11;;;;;;;15.10;3.03;;;10.80;99.90;;;;;;5016483;28;20029;-84
2022/04/10 08:04:37;;;;;;;9.82;3.72;;;10.80;99.90;;;;;;5016601;28;20052;-84
2022/04/10 08:07:03;;;;;;;11.73;3.50;;;10.80;99.20;;;;;;5017235;28;20014;-83
2022/04/10 08:09:29;;;;;;;10.18;3.47;;;10.70;99.90;;;;;;5017616;28;20453;-83
2022/04/10 08:11:55;;;;;;;9.00;3.45;;;10.60;99.20;;;;;;5028232;28;20048;-80
2022/04/10 08:14:21;;;;;;;11.57;3.08;;;10.40;99.30;;;;;;5037092;28;20085;-84
2022/04/10 08:16:48;;;;;;;7.15;2.40;;;9.80;99.20;;;;;;5018697;28;20115;-83
2022/04/10 08:19:13;;;;;;;6.65;2.28;;;9.10;99.60;;;;;;5015355;28;20116;-83
2022/04/10 08:21:39;;;;;;;11.38;2.58;;;8.50;99.90;;;;;;5012811;28;20049;-83
2022/04/10 08:24:05;;;;;;;7.35;2.60;;;8.80;99.90;;;;;;5015812;28;20458;-82
2022/04/10 08:26:32;;;;;;;9.25;2.28;;;9.10;99.90;;;;;;5014702;28;20073;-83
2022/04/10 08:28:57;;;;;;;6.97;2.30;;;9.80;99.90;;;;;;5014395;28;20026;-83
2022/04/10 08:31:24;;;;;;;11.30;3.30;;;10.00;99.90;;;;;;5012233;28;20030;-83
2022/04/10 08:33:51;;;;;;;10.48;2.53;;;9.80;99.90;;;;;;5013652;28;20026;-83
2022/04/10 08:36:17;;;;;;;10.18;2.90;;;9.80;99.20;;;;;;5014396;28;20022;-84
2022/04/10 08:38:42;;;;;;;8.70;2.72;;;10.00;99.90;;;;;;5015163;28;20026;-82
2022/04/10 08:41:08;;;;;;;8.95;2.42;;;10.40;99.90;;;;;;5015623;28;20107;-85
2022/04/10 08:43:35;;;;;;;6.65;2.63;;;10.30;98.70;;;;;;5017827;28;20064;-84
2022/04/10 08:46:03;;;;;;;6.07;2.58;;;9.80;98.90;;;;;;5015749;28;20026;-84
2022/04/10 08:48:29;;;;;;;7.72;3.00;;;9.50;99.90;;;;;;5013108;28;20025;-84
2022/04/10 08:50:56;;;;;;;10.00;3.33;;;9.30;99.90;;;;;;5014724;28;20057;-84
2022/04/10 08:53:24;;;;;;;5.97;2.00;;;8.80;99.90;;;;;;5020336;28;20029;-84
2022/04/10 08:55:50;;;;;;;14.00;3.85;;;8.70;99.90;;;;;;5019790;28;20022;-85
2022/04/10 08:58:15;;;;;;;11.73;3.63;;;8.80;99.90;;;;;;5026913;28;20056;-86
2022/04/10 09:00:43;;;;;;;16.38;3.03;;;9.00;99.90;;;;;;5023724;28;20025;-83
2022/04/10 09:03:08;;;;;;;9.00;3.00;;;8.70;99.90;;;;;;5025019;28;20022;-85
2022/04/10 09:05:34;;;;;;;9.95;3.05;;;8.60;99.90;;;;;;5021704;28;20026;-85
2022/04/10 09:08:09;;;;;;;12.93;2.38;;;8.40;99.90;;;;;;5022855;28;20465;-85
2022/04/10 09:11:10;;;;;;;7.22;2.50;;;8.30;99.90;;;;;;5019237;28;20026;-85
2022/04/10 09:13:38;;;;;;;7.22;2.30;;;8.30;99.90;;;;;;5008072;28;20096;-83
2022/04/10 09:16:16;;;;;;;13.88;2.88;;;8.40;99.90;;;;;;5013545;28;20053;-83
2022/04/10 09:18:55;;;;;;;6.50;2.10;;;8.40;99.90;;;;;;5011941;28;20478;-84
2022/04/10 09:21:33;;;;;;;4.93;2.08;;;8.30;99.90;;;;;;5012391;28;20051;-82
2022/04/10 09:24:05;;;;;;;5.82;2.22;;;8.20;99.90;;;;;;5014267;28;20056;-85
2022/04/10 09:26:50;;;;;;;7.88;2.72;;;8.10;99.90;;;;;;5014046;28;20470;-86
2022/04/10 09:29:18;;;;;;;7.40;2.67;;;7.90;99.90;;;;;;5015862;28;20237;-85
2022/04/10 09:31:43;;;;;;;7.78;2.97;;;7.90;99.90;;;;;;5024614;28;20385;-84
2022/04/10 09:34:13;;;;;;;7.28;2.35;;;7.80;99.90;;;;;;5026485;28;20046;-86
2022/04/10 09:36:41;;;;;;;8.40;2.50;;;7.70;99.90;;;;;;5018412;28;20066;-85
2022/04/10 09:39:09;;;;;;;7.18;2.45;;;7.50;99.90;;;;;;5014585;28;20053;-82
2022/04/10 09:41:36;;;;;;;8.15;2.53;;;7.40;99.90;;;;;;5015837;28;20028;-83
2022/04/10 09:44:17;;;;;;;9.75;2.50;;;7.30;99.90;;;;;;5012262;28;20049;-89
2022/04/10 09:46:43;;;;;;;11.13;2.75;;;7.20;99.90;;;;;;5003132;28;20046;-80
2022/04/10 09:49:17;;;;;;;5.68;2.20;;;7.20;99.90;;;;;;5011572;28;20057;-84
2022/04/10 09:52:04;;;;;;;10.50;3.38;;;7.00;99.90;;;;;;4994243;28;20045;-83
2022/04/10 09:54:57;;;;;;;6.75;2.95;;;6.90;99.90;;;;;;4992489;28;20026;-80
2022/04/10 09:57:22;;;;;;;8.90;2.83;;;6.80;99.90;;;;;;4993464;28;20599;-84
2022/04/10 09:59:52;;;;;;;6.93;2.83;;;6.80;99.90;;;;;;4995220;28;20038;-86
2022/04/10 10:02:23;;;;;;;8.70;3.33;;;6.90;99.90;;;;;;4997312;28;20129;-87
2022/04/10 10:04:49;;;;;;;9.00;3.00;;;7.00;99.90;;;;;;4995251;28;20046;-83
2022/04/10 10:07:18;;;;;;;11.20;3.03;;;7.20;99.90;;;;;;4993207;28;20140;-83
2022/04/10 10:09:44;;;;;;;8.55;2.65;;;7.70;99.90;;;;;;4992673;28;20030;-81
2022/04/10 10:12:10;;;;;;;5.22;2.30;;;8.40;99.90;;;;;;4992743;28;20026;-84
2022/04/10 10:14:37;;;;;;;7.90;2.95;;;9.40;99.90;;;;;;4993121;28;20135;-81
2022/04/10 10:17:04;;;;;;;7.68;2.75;;;10.40;99.90;;;;;;4993813;28;20038;-85
2022/04/10 10:19:35;;;;;;;10.40;2.70;;;10.90;99.90;;;;;;4992464;28;20482;-83
2022/04/10 10:22:15;;;;;;;8.00;3.22;;;11.40;96.50;;;;;;5008696;28;20113;-81
2022/04/10 10:25:03;;;;;;;7.03;2.90;;;12.10;95.20;;;;;;5008762;28;20036;-84
2022/04/10 10:27:48;;;;;;;4.25;2.47;;;13.10;94.20;;;;;;4994364;28;20034;-84
2022/04/10 10:30:23;;;;;;;9.25;3.08;;;12.80;89.80;;;;;;4991839;28;20023;-82
2022/04/10 10:32:55;;;;;;;4.00;1.90;;;11.90;91.90;;;;;;4992923;28;20505;-84
2022/04/10 10:35:35;;;;;;;7.35;2.30;;;11.10;91.10;;;;;;4994299;28;20040;-84
2022/04/10 10:38:01;;;;;;;5.72;1.65;;;10.10;92.00;;;;;;4992993;28;20381;-85
2022/04/10 10:40:27;;;;;;;3.95;1.63;;;9.30;92.30;;;;;;4995104;28;20026;-85
2022/04/10 10:42:58;;;;;;;3.67;1.77;;;9.20;93.50;;;;;;4994671;28;20022;-83
2022/04/10 10:45:36;;;;;;;4.45;1.83;;;9.40;93.50;;;;;;5004235;28;20034;-82
2022/04/10 10:48:32;;;;;;;6.40;1.60;;;10.40;94.90;;;;;;4999507;28;20335;-83
2022/04/10 10:51:22;;;;;;;4.97;1.70;;;10.90;90.00;;;;;;4992424;28;20022;-82
2022/04/10 10:53:57;;;;;;;4.40;1.60;;;10.40;86.20;;;;;;4993034;28;20027;-85
2022/04/10 10:56:36;;;;;;;4.50;1.25;;;9.80;83.70;;;;;;4996816;28;20406;-85
2022/04/10 10:59:34;;;;;;;1.60;0.70;;;10.20;82.20;;;;;;4997694;28;20044;-82
2022/04/10 11:02:10;;;;;;;3.95;0.90;;;10.80;77.70;;;;;;4995875;28;20022;-85
2022/04/10 11:04:42;;;;;;;1.73;1.00;;;11.70;75.90;;;;;;5000409;28;20018;-84
2022/04/10 11:07:27;;;;;;;3.35;0.93;;;12.20;77.80;;;;;;5003302;28;20545;-84
2022/04/10 11:09:59;;;;;;;5.00;0.85;;;12.50;73.80;;;;;;5002279;28;20042;-83
2022/04/10 11:12:45;;;;;;;3.10;0.80;;;12.50;71.30;;;;;;5001606;28;20038;-86
2022/04/10 11:15:22;;;;;;;2.58;0.82;;;12.80;70.00;;;;;;5000079;28;20401;-84
2022/04/10 11:17:49;;;;;;;2.35;1.00;;;12.30;71.00;;;;;;5013476;28;20030;-84
2022/04/10 11:20:17;;;;;;;3.90;1.00;;;11.30;71.00;;;;;;5000762;28;20452;-84
2022/04/10 11:22:59;;;;;;;3.13;0.85;;;10.50;74.40;;;;;;4999183;28;20026;-84
2022/04/10 11:25:27;;;;;;;4.50;1.00;;;10.00;76.40;;;;;;4998364;28;20110;-84
2022/04/10 11:28:07;;;;;;;4.15;1.00;;;10.10;75.00;;;;;;4995752;28;20026;-85
2022/04/10 11:30:38;;;;;;;2.50;1.20;;;10.80;76.50;;;;;;4998271;28;20037;-83
2022/04/10 11:33:06;;;;;;;2.50;1.05;;;11.20;69.90;;;;;;4999596;28;20125;-84
2022/04/10 11:35:33;;;;;;;4.22;1.60;;;10.80;72.30;;;;;;4995988;28;20030;-82
2022/04/10 11:38:03;;;;;;;9.10;2.45;;;10.30;74.50;;;;;;4995976;28;20042;-86
2022/04/10 11:40:30;;;;;;;6.47;2.05;;;9.90;74.20;;;;;;4995224;28;20037;-87
2022/04/10 11:42:58;;;;;;;7.07;2.00;;;9.60;76.40;;;;;;4995682;28;20057;-84
2022/04/10 11:45:26;;;;;;;2.47;1.10;;;9.50;76.80;;;;;;5007086;28;20045;-86
2022/04/10 11:47:52;;;;;;;2.78;1.00;;;9.50;76.80;;;;;;5015892;28;20032;-83
2022/04/10 11:50:19;;;;;;;4.53;1.10;;;9.70;78.20;;;;;;5015389;28;20030;-82
2022/04/10 11:53:03;;;;;;;2.83;1.15;;;9.70;77.60;;;;;;5013993;28;20030;-84
2022/04/10 11:55:36;;;;;;;5.65;2.25;;;9.80;77.60;;;;;;5013981;28;20026;-84
2022/04/10 11:58:16;;;;;;;4.72;1.35;;;9.70;77.10;;;;;;5017931;28;20044;-82
2022/04/10 12:00:55;;;;;;;2.10;1.02;;;9.70;77.50;;;;;;5016091;28;20050;-86
2022/04/10 12:03:23;;;;;;;2.75;0.95;;;9.80;78.10;;;;;;5014863;28;20099;-84
2022/04/10 12:05:49;;;;;;;3.42;0.82;;;10.40;76.10;;;;;;5015887;28;20033;-86
2022/04/10 12:08:17;;;;;;;6.03;1.30;;;11.00;74.10;;;;;;5013333;28;20041;-85
2022/04/10 12:10:57;;;;;;;3.38;0.80;;;10.80;72.90;;;;;;5014556;28;20029;-82
2022/04/10 12:13:37;;;;;;;6.35;0.95;;;11.00;72.40;;;;;;5014102;28;20061;-84
2022/04/10 12:16:13;;;;;;;3.22;0.95;;;11.40;69.90;;;;;;5016528;28;20077;-82
2022/04/10 12:18:49;;;;;;;2.33;1.13;;;11.90;70.30;;;;;;5016503;28;20080;-84
2022/04/10 12:21:16;;;;;;;3.42;0.90;;;11.80;67.80;;;;;;5017761;28;20022;-83
2022/04/10 12:23:42;;;;;;;3.58;1.13;;;11.90;70.10;;;;;;5015907;28;20036;-85
2022/04/10 12:26:08;;;;;;;4.10;0.82;;;12.60;67.10;;;;;;5020953;28;20033;-81
2022/04/10 12:28:35;;;;;;;4.28;0.90;;;12.70;66.50;;;;;;5015852;28;20549;-82
2022/04/10 12:31:01;;;;;;;3.30;0.90;;;13.00;63.30;;;;;;5017971;28;20094;-80
2022/04/10 12:33:30;;;;;;;2.38;0.95;;;12.80;63.40;;;;;;5016475;28;20408;-83
2022/04/10 12:35:56;;;;;;;3.03;0.68;;;12.30;63.80;;;;;;5035388;28;20105;-73
2022/04/10 12:38:30;;;;;;;3.72;0.85;;;11.80;65.90;;;;;;5037044;28;20038;-84
2022/04/10 12:41:05;;;;;;;2.30;0.60;;;11.50;66.90;;;;;;5024152;28;20092;-80
2022/04/10 12:43:31;;;;;;;3.03;1.10;;;11.00;66.60;;;;;;5017275;28;20029;-85
2022/04/10 12:46:08;;;;;;;3.83;0.93;;;11.00;70.00;;;;;;5000294;28;20089;-82
2022/04/10 12:48:34;;;;;;;1.23;0.70;;;11.50;68.90;;;;;;4997612;28;20133;-85
2022/04/10 12:51:09;;;;;;;2.50;0.50;;;12.30;66.40;;;;;;4997088;28;20030;-81
2022/04/10 12:53:36;;;;;;;3.70;0.80;;;12.90;65.80;;;;;;4997913;28;20434;-86
2022/04/10 12:56:04;;;;;;;3.67;1.02;;;13.40;64.00;;;;;;4998875;28;20061;-85